Time;durP1;ratioP1;P1;durP2;ratioP2;P2;SDS_P1;SDS_P2;PMS_P1;PMS_P2;Temp;Humidity;BMP_temperature;BMP_pressure;BME280_temperature;BME280_humidity;BME280_pressure;Samples;Min_cycle;Max_cycle;Signal;HPM_P1;HPM_P2
2023/06/11 00:00:40;;;;;;;9.18;8.25;;;;;;;19.56;67.15;100759.19;6057905;23;20086;-70
2023/06/11 00:03:06;;;;;;;10.48;8.57;;;;;;;19.88;66.34;100805.09;6028645;23;20023;-70
2023/06/11 00:05:35;;;;;;;8.55;7.85;;;;;;;19.92;66.30;100800.34;6055939;23;20097;-70
2023/06/11 00:08:02;;;;;;;9.50;8.13;;;;;;;19.92;66.02;100801.22;6029953;23;20026;-70
2023/06/11 00:10:28;;;;;;;9.25;8.32;;;;;;;19.18;65.61;100680.94;6058657;23;20183;-70
2023/06/11 00:12:55;;;;;;;10.88;8.73;;;;;;;19.31;65.99;100698.34;6030007;23;20045;-70
2023/06/11 00:15:21;;;;;;;9.05;8.25;;;;;;;19.90;65.73;100800.47;6031595;23;20037;-70
2023/06/11 00:17:48;;;;;;;8.80;8.10;;;;;;;19.94;65.70;100798.38;6054373;23;20046;-70
2023/06/11 00:20:16;;;;;;;9.18;8.30;;;;;;;20.01;64.79;100796.03;6030278;23;20030;-70
2023/06/11 00:22:42;;;;;;;8.60;7.80;;;;;;;19.91;64.46;100754.22;6058872;23;20022;-70
2023/06/11 00:25:10;;;;;;;8.20;7.60;;;;;;;20.15;63.92;100779.63;6030362;23;20384;-70
2023/06/11 00:27:37;;;;;;;9.60;8.57;;;;;;;20.22;63.65;100779.91;6056436;23;20061;-70
2023/06/11 00:30:06;;;;;;;8.80;8.10;;;;;;;20.43;62.93;100771.75;6027978;23;20022;-70
2023/06/11 00:32:34;;;;;;;9.10;8.30;;;;;;;20.58;62.48;100769.47;6053264;23;20042;-70
2023/06/11 00:35:01;;;;;;;9.10;8.30;;;;;;;20.59;62.50;100780.03;6029875;23;20771;-70
2023/06/11 00:37:30;;;;;;;9.43;8.65;;;;;;;20.32;62.19;100732.75;6059471;23;20022;-70
2023/06/11 00:39:59;;;;;;;9.38;8.57;;;;;;;20.25;61.89;100708.50;6026926;23;20027;-70
2023/06/11 00:42:27;;;;;;;9.15;8.35;;;;;;;20.60;61.76;100772.88;6052015;23;20031;-70
2023/06/11 00:44:54;;;;;;;9.73;8.23;;;;;;;20.61;61.28;100758.56;6026989;23;20123;-70
2023/06/11 00:47:21;;;;;;;8.18;7.57;;;;;;;20.35;61.18;100715.63;6056402;23;20607;-70
2023/06/11 00:49:49;;;;;;;9.05;8.25;;;;;;;20.53;61.42;100748.59;6027533;23;20031;-70
2023/06/11 00:52:18;;;;;;;10.00;8.35;;;;;;;20.62;61.75;100766.41;6056081;23;20085;-70
2023/06/11 00:54:48;;;;;;;8.02;7.32;;;;;;;20.61;61.76;100769.25;6004253;23;20054;-70
2023/06/11 00:57:17;;;;;;;8.98;8.10;;;;;;;20.59;61.58;100781.88;6057548;23;20149;-70
2023/06/11 00:59:50;;;;;;;9.13;8.32;;;;;;;20.51;61.97;100767.38;6028007;23;20077;-70
2023/06/11 01:02:26;;;;;;;8.60;7.90;;;;;;;20.53;61.74;100778.75;6024859;23;20021;-70
2023/06/11 01:04:57;;;;;;;8.82;8.13;;;;;;;20.51;62.19;100775.38;6049197;23;20359;-70
2023/06/11 01:07:34;;;;;;;9.23;8.52;;;;;;;20.56;61.66;100785.59;6029648;23;20824;-70
2023/06/11 01:10:02;;;;;;;8.93;8.13;;;;;;;20.56;61.63;100769.63;6057621;23;20014;-71
2023/06/11 01:12:28;;;;;;;8.45;7.85;;;;;;;20.55;61.91;100780.41;6029471;23;20027;-70
2023/06/11 01:14:57;;;;;;;9.15;8.20;;;;;;;20.47;61.72;100770.50;6001499;23;20045;-70
2023/06/11 01:17:31;;;;;;;8.57;7.93;;;;;;;20.42;61.90;100775.41;6007561;23;20029;-70
2023/06/11 01:20:11;;;;;;;9.20;8.40;;;;;;;20.47;61.90;100778.50;6026365;23;20019;-70
2023/06/11 01:23:04;;;;;;;9.40;8.43;;;;;;;20.42;61.97;100778.06;6061440;23;20032;-70
2023/06/11 01:25:37;;;;;;;9.75;8.70;;;;;;;20.45;62.38;100785.78;6030311;23;20014;-70
2023/06/11 01:28:07;;;;;;;8.50;7.68;;;;;;;20.38;62.51;100787.31;6056809;23;20025;-70
2023/06/11 01:30:36;;;;;;;9.02;8.20;;;;;;;20.37;62.31;100791.81;6028342;23;20514;-70
2023/06/11 01:33:08;;;;;;;9.15;8.35;;;;;;;20.32;62.55;100799.38;6050053;23;20088;-70
2023/06/11 01:35:35;;;;;;;8.77;7.97;;;;;;;20.35;62.89;100792.91;6002685;23;20050;-70
2023/06/11 01:38:02;;;;;;;9.35;8.00;;;;;;;20.25;62.16;100785.78;6029045;23;20348;-70
2023/06/11 01:40:28;;;;;;;9.65;8.75;;;;;;;20.20;62.93;100803.19;6024620;23;20682;-70
2023/06/11 01:42:56;;;;;;;8.48;7.72;;;;;;;20.15;63.50;100816.09;6030639;23;20521;-70
2023/06/11 01:45:23;;;;;;;9.60;8.35;;;;;;;19.81;63.62;100766.69;6027514;23;20511;-70
2023/06/11 01:47:50;;;;;;;11.52;7.93;;;;;;;20.07;64.34;100819.44;6050676;23;20039;-70
2023/06/11 01:50:18;;;;;;;9.05;8.18;;;;;;;19.53;64.77;100755.81;6028223;23;20481;-70
2023/06/11 01:52:45;;;;;;;8.32;7.72;;;;;;;19.86;64.88;100828.38;6053656;23;20394;-70
2023/06/11 01:55:12;;;;;;;9.10;8.25;;;;;;;19.30;65.59;100767.66;6027819;23;20018;-71
2023/06/11 01:57:39;;;;;;;8.98;8.18;;;;;;;19.40;65.99;100818.25;6054261;23;20046;-70
2023/06/11 02:00:11;;;;;;;9.77;8.98;;;;;;;19.50;66.63;100843.97;6025680;23;20082;-69
2023/06/11 02:02:42;;;;;;;9.10;8.18;;;;;;;19.20;67.13;100836.78;6056675;23;20022;-70
2023/06/11 02:05:09;;;;;;;8.32;7.60;;;;;;;19.00;68.17;100813.75;6026851;23;20031;-70
2023/06/11 02:07:36;;;;;;;9.75;8.85;;;;;;;19.04;68.83;100842.63;6050587;23;20022;-70
2023/06/11 02:10:03;;;;;;;9.38;8.57;;;;;;;19.13;69.39;100862.25;6026753;23;20034;-70
2023/06/11 02:12:29;;;;;;;8.68;7.88;;;;;;;19.17;69.62;100868.16;6025862;23;20101;-70
2023/06/11 02:14:56;;;;;;;9.13;8.35;;;;;;;18.77;69.00;100797.06;6028215;23;20030;-70
2023/06/11 02:17:22;;;;;;;9.23;8.30;;;;;;;19.10;68.92;100857.19;6027972;23;20032;-70
2023/06/11 02:19:49;;;;;;;9.23;8.43;;;;;;;18.90;69.34;100829.63;6056293;23;20030;-70
2023/06/11 02:22:15;;;;;;;10.25;8.27;;;;;;;18.61;69.99;100802.84;6028233;23;20031;-70
2023/06/11 02:24:42;;;;;;;9.85;8.77;;;;;;;18.65;70.02;100814.91;6056572;23;20030;-70
2023/06/11 02:27:10;;;;;;;9.65;8.45;;;;;;;18.56;69.91;100794.41;6026315;23;20027;-70
2023/06/11 02:29:37;;;;;;;9.27;8.48;;;;;;;18.67;69.94;100816.47;6026917;23;20033;-70
2023/06/11 02:32:06;;;;;;;8.85;8.10;;;;;;;18.88;69.80;100843.09;6039357;23;20513;-70
2023/06/11 02:34:32;;;;;;;8.35;7.55;;;;;;;18.88;69.57;100839.56;6054812;23;20090;-70
2023/06/11 02:36:59;;;;;;;9.50;8.52;;;;;;;18.86;69.05;100833.53;6026279;23;20297;-70
2023/06/11 02:39:25;;;;;;;8.65;7.95;;;;;;;18.27;69.32;100742.75;6025372;23;20022;-70
2023/06/11 02:41:52;;;;;;;22.20;8.90;;;;;;;18.82;69.56;100825.00;6054198;23;20520;-70
2023/06/11 02:44:18;;;;;;;8.82;8.10;;;;;;;18.81;69.58;100830.44;6001929;23;20015;-70
2023/06/11 02:46:44;;;;;;;8.70;8.00;;;;;;;18.78;69.71;100828.00;6055487;23;20025;-70
2023/06/11 02:49:11;;;;;;;8.02;7.43;;;;;;;18.72;69.90;100835.53;6027357;23;20055;-70
2023/06/11 02:51:37;;;;;;;8.88;8.07;;;;;;;18.23;69.99;100767.88;6054830;23;20592;-70
2023/06/11 02:54:04;;;;;;;9.30;8.45;;;;;;;18.24;70.60;100785.53;6025826;23;20058;-70
2023/06/11 02:56:30;;;;;;;9.63;8.05;;;;;;;18.57;71.29;100852.75;6053347;23;20007;-70
2023/06/11 02:58:57;;;;;;;8.20;7.50;;;;;;;18.50;72.31;100849.78;6028512;23;20090;-70
2023/06/11 03:01:23;;;;;;;9.48;8.57;;;;;;;18.57;71.69;100851.94;6055345;23;20097;-70
2023/06/11 03:03:50;;;;;;;8.80;7.93;;;;;;;18.54;71.83;100850.34;6027680;23;20048;-70
2023/06/11 03:06:16;;;;;;;9.10;8.43;;;;;;;18.06;71.61;100756.03;6025414;23;20581;-69
2023/06/11 03:08:43;;;;;;;8.95;8.15;;;;;;;18.57;71.45;100834.16;6054339;23;20145;-70
2023/06/11 03:11:09;;;;;;;9.40;8.40;;;;;;;18.61;71.30;100837.41;6022958;23;20035;-69
2023/06/11 03:13:36;;;;;;;8.80;8.07;;;;;;;18.15;71.09;100757.06;6053800;23;20100;-70
2023/06/11 03:16:03;;;;;;;9.07;8.27;;;;;;;18.49;70.78;100826.81;6025774;23;20347;-69
2023/06/11 03:18:29;;;;;;;10.70;8.27;;;;;;;18.52;71.50;100845.19;6055169;23;20097;-70
2023/06/11 03:20:56;;;;;;;8.20;7.60;;;;;;;18.23;71.91;100812.22;6025443;23;20022;-70
2023/06/11 03:23:22;;;;;;;8.55;7.82;;;;;;;18.44;71.91;100852.94;6059461;23;20612;-69
2023/06/11 03:25:49;;;;;;;9.00;8.20;;;;;;;18.40;72.64;100854.19;6031034;23;20033;-69
2023/06/11 03:28:16;;;;;;;8.82;8.02;;;;;;;18.47;72.96;100865.13;6030145;23;20029;-68
2023/06/11 03:30:42;;;;;;;8.45;7.70;;;;;;;18.50;72.57;100857.75;6058964;23;20022;-70
2023/06/11 03:33:09;;;;;;;9.18;8.27;;;;;;;18.31;72.18;100825.69;6029927;23;20018;-69
2023/06/11 03:35:35;;;;;;;9.32;8.43;;;;;;;18.56;72.07;100860.84;6056144;23;20113;-69
2023/06/11 03:38:02;;;;;;;9.07;8.32;;;;;;;18.55;71.95;100868.00;6029149;23;20098;-71
2023/06/11 03:40:28;;;;;;;8.90;8.05;;;;;;;18.56;72.10;100863.50;6029706;23;20046;-71
2023/06/11 03:42:54;;;;;;;11.35;7.95;;;;;;;18.60;72.34;100870.25;6033578;23;20046;-69
2023/06/11 03:45:25;;;;;;;9.32;8.55;;;;;;;18.60;72.56;100868.47;6056360;23;20371;-67
2023/06/11 03:47:55;;;;;;;9.50;8.60;;;;;;;18.63;72.60;100883.31;6029757;23;20034;-67
2023/06/11 03:50:22;;;;;;;9.35;8.60;;;;;;;18.34;72.43;100826.28;6024494;23;20095;-67
2023/06/11 03:52:49;;;;;;;8.77;7.93;;;;;;;18.69;72.25;100880.13;6035375;23;20038;-66
2023/06/11 03:55:16;;;;;;;9.25;8.50;;;;;;;18.62;71.62;100857.69;6058421;23;20030;-71
2023/06/11 03:57:42;;;;;;;9.18;8.38;;;;;;;17.27;71.33;100639.47;6032855;23;20030;-70
2023/06/11 04:00:09;;;;;;;9.98;9.10;;;;;;;18.82;71.53;100880.84;6058928;23;20524;-71
2023/06/11 04:02:36;;;;;;;8.68;8.05;;;;;;;18.89;71.09;100881.16;6030600;23;20755;-70
2023/06/11 04:05:03;;;;;;;9.98;8.02;;;;;;;18.96;71.31;100889.44;6057093;23;20021;-69
2023/06/11 04:07:29;;;;;;;9.15;8.35;;;;;;;19.06;70.88;100887.69;6028038;23;20040;-68
2023/06/11 04:09:56;;;;;;;8.82;8.02;;;;;;;19.34;70.33;100875.53;6058236;23;20066;-68
2023/06/11 04:12:22;;;;;;;8.88;8.13;;;;;;;19.76;68.93;100850.63;6028445;23;20041;-68
2023/06/11 04:14:49;;;;;;;9.00;8.30;;;;;;;20.74;66.32;100886.25;6059380;23;20026;-68
2023/06/11 04:17:15;;;;;;;9.40;8.68;;;;;;;20.70;63.61;100787.84;6028546;23;20109;-68
2023/06/11 04:19:42;;;;;;;9.27;8.38;;;;;;;21.21;62.02;100785.75;6055735;23;20520;-69
2023/06/11 04:22:08;;;;;;;9.60;8.73;;;;;;;21.57;60.32;100756.50;6027038;23;20019;-68
2023/06/11 04:24:34;;;;;;;8.82;7.93;;;;;;;22.44;58.81;100812.97;6030341;23;20108;-68
2023/06/11 04:27:01;;;;;;;9.38;8.38;;;;;;;22.71;58.53;100809.31;6032762;23;20026;-69
2023/06/11 04:29:29;;;;;;;8.70;8.00;;;;;;;23.14;58.11;100830.88;6057307;23;20471;-68
2023/06/11 04:31:56;;;;;;;9.05;8.32;;;;;;;23.15;56.24;100774.47;6028885;23;20094;-68
2023/06/11 04:34:28;;;;;;;8.57;7.93;;;;;;;23.63;55.38;100791.75;6029467;23;20027;-69
2023/06/11 04:36:56;;;;;;;;;;;;;;;23.57;55.13;100767.44;6032230;23;20555;-68
2023/06/11 04:39:22;;;;;;;8.52;7.68;;;;;;;23.56;55.17;100771.13;6028429;23;19922;-68
2023/06/11 04:41:51;;;;;;;9.10;8.30;;;;;;;23.77;54.25;100757.28;6052931;23;20032;-69
2023/06/11 04:44:20;;;;;;;9.20;8.50;;;;;;;24.16;53.95;100786.19;6027904;23;20082;-68
2023/06/11 04:46:47;;;;;;;8.77;8.07;;;;;;;24.36;53.14;100760.69;6031543;23;20026;-68
2023/06/11 04:49:20;;;;;;;8.30;7.70;;;;;;;24.88;52.25;100760.31;6027102;23;20031;-69
2023/06/11 04:51:48;;;;;;;;;;;;;;;24.48;51.62;100726.31;6058611;23;20089;-67
2023/06/11 04:54:17;;;;;;;9.15;8.45;;;;;;;24.61;52.03;100758.84;6027810;23;19920;-68
2023/06/11 04:56:44;;;;;;;8.75;7.97;;;;;;;25.17;52.13;100814.41;6054396;23;20084;-67
2023/06/11 04:59:10;;;;;;;8.25;7.75;;;;;;;25.32;50.74;100750.09;6028223;23;20026;-68
2023/06/11 05:01:37;;;;;;;8.77;8.07;;;;;;;25.60;49.99;100743.22;6051978;23;20041;-68
2023/06/11 05:04:04;;;;;;;8.57;7.97;;;;;;;25.27;49.81;100723.75;6025519;23;20037;-68
2023/06/11 05:06:33;;;;;;;8.80;8.10;;;;;;;25.70;49.36;100739.47;6052598;23;20007;-68
2023/06/11 05:09:00;;;;;;;8.23;7.63;;;;;;;25.38;49.38;100688.44;6019681;23;20031;-68
2023/06/11 05:11:26;;;;;;;10.90;8.40;;;;;;;25.96;49.16;100792.91;6054029;23;20050;-68
2023/06/11 05:13:53;;;;;;;8.18;7.57;;;;;;;25.86;48.37;100723.22;6030078;23;20015;-68
2023/06/11 05:16:21;;;;;;;8.07;7.47;;;;;;;25.35;49.05;100688.78;6060184;23;20030;-68
2023/06/11 05:18:47;;;;;;;8.98;8.15;;;;;;;25.71;48.73;100757.28;6028076;23;20509;-68
2023/06/11 05:21:14;;;;;;;8.70;8.10;;;;;;;25.42;49.17;100738.13;6028468;23;20611;-68
2023/06/11 05:23:41;;;;;;;8.50;7.80;;;;;;;26.31;48.15;100790.66;6041028;23;20030;-70
2023/06/11 05:26:14;;;;;;;9.07;8.38;;;;;;;26.06;47.44;100726.31;6029095;23;20035;-70
2023/06/11 05:28:40;;;;;;;8.70;8.00;;;;;;;25.91;47.98;100753.13;6055578;23;20035;-70
2023/06/11 05:31:09;;;;;;;8.98;8.25;;;;;;;26.33;48.17;100826.28;6027166;23;20031;-71
2023/06/11 05:33:36;;;;;;;8.40;7.70;;;;;;;26.77;47.04;100823.72;6029984;23;20021;-70
2023/06/11 05:36:04;;;;;;;9.88;7.70;;;;;;;26.75;46.82;100782.69;6061432;23;20025;-71
2023/06/11 05:38:31;;;;;;;8.90;8.20;;;;;;;26.75;46.22;100768.41;6007275;23;20031;-71
2023/06/11 05:40:57;;;;;;;8.85;8.15;;;;;;;26.72;46.80;100775.00;6055200;23;20078;-71
2023/06/11 05:43:24;;;;;;;8.80;8.10;;;;;;;26.80;46.37;100768.66;6026124;23;20026;-71
2023/06/11 05:45:51;;;;;;;8.55;7.90;;;;;;;27.19;46.78;100853.78;6029584;23;20020;-70
2023/06/11 05:48:17;;;;;;;9.05;8.30;;;;;;;27.11;45.50;100762.28;6055483;23;20082;-70
2023/06/11 05:50:44;;;;;;;8.32;7.60;;;;;;;26.62;44.69;100632.59;6028187;23;21249;-71
2023/06/11 05:53:10;;;;;;;8.95;8.25;;;;;;;27.25;45.83;100794.59;6055330;23;20042;-69
2023/06/11 05:55:39;;;;;;;8.20;7.68;;;;;;;27.27;45.26;100767.47;6028230;23;20038;-71
2023/06/11 05:58:06;;;;;;;8.70;8.00;;;;;;;26.93;45.65;100744.63;6053565;23;20037;-69
2023/06/11 06:00:32;;;;;;;8.90;7.97;;;;;;;27.12;45.64;100782.78;6027337;23;20025;-70
2023/06/11 06:03:00;;;;;;;8.30;7.70;;;;;;;26.77;45.73;100734.03;6055456;23;20053;-69
2023/06/11 06:05:28;;;;;;;8.18;7.57;;;;;;;27.40;45.35;100815.31;6000554;23;20023;-70
2023/06/11 06:07:54;;;;;;;9.05;8.35;;;;;;;27.31;46.05;100836.16;6027705;23;20082;-70
2023/06/11 06:10:21;;;;;;;8.82;8.18;;;;;;;27.47;44.69;100750.72;6055221;23;20034;-69
2023/06/11 06:12:47;;;;;;;8.10;7.55;;;;;;;27.07;44.95;100729.47;6028623;23;20039;-69
2023/06/11 06:15:14;;;;;;;8.52;7.93;;;;;;;27.19;45.39;100749.53;6059178;23;20039;-69
2023/06/11 06:17:40;;;;;;;8.38;7.75;;;;;;;27.57;44.97;100802.47;6027145;23;20034;-69
2023/06/11 06:20:08;;;;;;;8.45;7.85;;;;;;;27.39;44.83;100763.28;6001146;23;20011;-69
2023/06/11 06:22:35;;;;;;;8.75;7.95;;;;;;;27.57;44.65;100792.50;6033820;23;20018;-72
2023/06/11 06:25:01;;;;;;;8.93;8.23;;;;;;;27.29;44.65;100751.13;6051826;23;20552;-71
2023/06/11 06:27:28;;;;;;;8.50;7.90;;;;;;;27.14;45.42;100761.88;6026604;23;20375;-69
2023/06/11 06:29:54;;;;;;;8.32;7.70;;;;;;;26.34;47.04;100766.06;6027746;23;20623;-69
2023/06/11 06:32:20;;;;;;;9.15;8.45;;;;;;;25.84;48.23;100793.31;6054358;23;20030;-69
2023/06/11 06:34:47;;;;;;;8.93;8.23;;;;;;;25.41;48.67;100778.59;6029809;23;20053;-69
2023/06/11 06:37:13;;;;;;;9.93;9.23;;;;;;;24.49;48.35;100634.06;6052502;23;20038;-67
2023/06/11 06:39:40;;;;;;;8.60;8.05;;;;;;;25.25;48.74;100766.06;6028517;23;20003;-69
2023/06/11 06:42:07;;;;;;;8.70;8.00;;;;;;;25.17;49.95;100825.16;6054438;23;20040;-69
2023/06/11 06:44:33;;;;;;;8.52;7.90;;;;;;;25.31;49.99;100845.13;6025355;23;20187;-69
2023/06/11 06:47:00;;;;;;;9.13;8.27;;;;;;;25.37;49.29;100826.47;6054861;23;20088;-68
2023/06/11 06:49:26;;;;;;;9.07;8.27;;;;;;;25.09;49.54;100785.75;6028794;23;20017;-71
2023/06/11 06:51:52;;;;;;;8.77;8.15;;;;;;;25.30;50.13;100856.88;6049356;23;20049;-69
2023/06/11 06:54:19;;;;;;;8.48;7.82;;;;;;;25.44;49.40;100859.69;6025503;23;20025;-69
2023/06/11 06:56:46;;;;;;;8.02;7.43;;;;;;;25.47;49.38;100831.63;6052054;23;20089;-69
2023/06/11 06:59:14;;;;;;;8.68;7.85;;;;;;;25.33;49.79;100830.50;6026017;23;20026;-69
2023/06/11 07:01:40;;;;;;;8.18;7.47;;;;;;;25.61;49.25;100860.47;6028136;23;20041;-69
2023/06/11 07:04:07;;;;;;;8.10;7.60;;;;;;;25.54;49.00;100827.25;6054456;23;20029;-71
2023/06/11 07:06:33;;;;;;;8.35;7.65;;;;;;;25.52;49.79;100858.84;6005955;23;20041;-69
2023/06/11 07:09:00;;;;;;;8.10;7.50;;;;;;;25.60;49.19;100850.72;6059205;23;20161;-68
2023/06/11 07:11:26;;;;;;;12.30;7.93;;;;;;;25.30;49.67;100825.50;6030300;23;20023;-68
2023/06/11 07:13:53;;;;;;;8.25;7.75;;;;;;;25.76;49.49;100892.84;6060800;23;20060;-69
2023/06/11 07:16:19;;;;;;;8.85;8.02;;;;;;;25.88;49.32;100867.22;6029520;23;20745;-69
2023/06/11 07:18:46;;;;;;;8.25;7.65;;;;;;;26.01;49.24;100895.44;6061488;23;20033;-69
2023/06/11 07:21:13;;;;;;;8.48;7.72;;;;;;;26.13;48.32;100880.56;6030024;23;20106;-68
2023/06/11 07:23:39;;;;;;;8.38;7.80;;;;;;;26.01;47.81;100844.31;6058823;23;20030;-70
2023/06/11 07:26:05;;;;;;;8.93;8.25;;;;;;;26.08;48.79;100885.66;6025399;23;20031;-69
2023/06/11 07:28:32;;;;;;;8.38;7.68;;;;;;;26.09;48.25;100863.09;6037690;23;20030;-69
2023/06/11 07:30:58;;;;;;;8.32;7.63;;;;;;;26.16;47.94;100858.69;6031218;23;20029;-71
2023/06/11 07:33:25;;;;;;;8.55;7.95;;;;;;;26.14;47.24;100825.75;6056753;23;20030;-70
2023/06/11 07:35:54;;;;;;;8.43;7.82;;;;;;;26.37;47.50;100865.28;6031455;23;20029;-70
2023/06/11 07:38:21;;;;;;;10.02;9.32;;;;;;;26.42;46.88;100844.03;6028049;23;20031;-71
2023/06/11 07:40:47;;;;;;;8.57;7.97;;;;;;;26.47;46.84;100847.03;6053470;23;20460;-71
2023/06/11 07:43:14;;;;;;;8.48;7.78;;;;;;;26.77;46.88;100880.28;6029537;23;20026;-70
2023/06/11 07:45:40;;;;;;;8.55;7.85;;;;;;;26.88;47.06;100889.75;6030309;23;20025;-70
2023/06/11 07:48:07;;;;;;;9.00;7.97;;;;;;;26.67;46.32;100823.16;6030115;23;20685;-70
2023/06/11 07:50:34;;;;;;;8.20;7.60;;;;;;;26.70;46.18;100816.56;6032380;23;20054;-70
2023/06/11 07:53:00;;;;;;;7.75;7.22;;;;;;;26.69;46.33;100844.53;6029960;23;20606;-68
2023/06/11 07:55:27;;;;;;;8.63;7.90;;;;;;;26.86;46.26;100851.41;6057934;23;20088;-69
2023/06/11 07:57:53;;;;;;;8.05;7.47;;;;;;;26.75;46.20;100820.38;6030230;23;20063;-70
2023/06/11 08:00:19;;;;;;;8.35;7.75;;;;;;;26.86;46.58;100860.34;6054732;23;20081;-69
2023/06/11 08:02:46;;;;;;;8.05;7.38;;;;;;;26.88;47.02;100895.16;6029529;23;20673;-69
2023/06/11 08:05:18;;;;;;;8.63;7.90;;;;;;;26.93;46.89;100879.28;6055944;23;20527;-69
2023/06/11 08:07:45;;;;;;;7.82;7.32;;;;;;;26.46;46.72;100819.28;6033147;23;20031;-69
2023/06/11 08:10:12;;;;;;;8.27;7.43;;;;;;;26.51;46.79;100817.91;6058745;23;20500;-70
2023/06/11 08:12:39;;;;;;;8.82;8.13;;;;;;;26.51;47.29;100856.41;6028774;23;20026;-70
2023/06/11 08:15:05;;;;;;;8.25;7.65;;;;;;;26.49;46.52;100818.06;6060227;23;20038;-70
2023/06/11 08:17:32;;;;;;;7.82;7.22;;;;;;;26.89;46.62;100883.38;6029274;23;20022;-70
2023/06/11 08:20:00;;;;;;;9.02;8.27;;;;;;;27.03;45.91;100844.84;6030186;23;20034;-70
2023/06/11 08:22:26;;;;;;;8.40;7.80;;;;;;;27.02;45.97;100866.56;6031352;23;20093;-70
2023/06/11 08:24:53;;;;;;;8.50;7.75;;;;;;;26.71;46.20;100796.72;6038737;23;20722;-71
2023/06/11 08:27:19;;;;;;;7.50;6.93;;;;;;;26.91;46.36;100875.94;6052044;23;20089;-70
2023/06/11 08:29:45;;;;;;;8.00;7.45;;;;;;;27.20;46.59;100925.50;6005865;23;20021;-70
2023/06/11 08:32:12;;;;;;;8.15;7.60;;;;;;;27.39;46.31;100911.50;6054091;23;20034;-70
2023/06/11 08:34:38;;;;;;;8.10;7.50;;;;;;;27.52;45.35;100858.81;6030970;23;20537;-70
2023/06/11 08:37:05;;;;;;;8.30;7.60;;;;;;;26.97;44.58;100716.28;6059720;23;20014;-70
2023/06/11 08:39:32;;;;;;;7.60;7.10;;;;;;;27.50;45.33;100858.16;6029036;23;20026;-69
2023/06/11 08:41:58;;;;;;;7.78;7.28;;;;;;;27.50;44.41;100788.91;6054195;23;20782;-70
2023/06/11 08:44:25;;;;;;;7.45;6.95;;;;;;;27.40;44.58;100810.78;6028841;23;20026;-70
2023/06/11 08:46:54;;;;;;;7.85;7.25;;;;;;;27.47;45.04;100855.84;6056969;23;20381;-71
2023/06/11 08:49:22;;;;;;;8.00;7.40;;;;;;;27.59;43.97;100784.25;6030593;23;20010;-70
2023/06/11 08:51:49;;;;;;;7.72;7.22;;;;;;;27.41;43.38;100734.28;6056096;23;20077;-71
2023/06/11 08:54:17;;;;;;;8.10;7.50;;;;;;;27.49;43.85;100772.94;6029592;23;20086;-70
2023/06/11 08:56:43;;;;;;;8.15;7.55;;;;;;;27.66;43.90;100809.41;6058124;23;20032;-68
2023/06/11 08:59:10;;;;;;;7.75;7.25;;;;;;;27.72;43.35;100784.38;6029286;23;20023;-70
2023/06/11 09:01:38;;;;;;;7.57;7.07;;;;;;;27.88;43.26;100785.19;6056990;23;20086;-69
2023/06/11 09:04:05;;;;;;;7.80;7.30;;;;;;;27.88;42.66;100767.16;6027804;23;20026;-71
2023/06/11 09:06:34;;;;;;;8.13;7.53;;;;;;;27.92;43.13;100790.00;6056421;23;20042;-70
2023/06/11 09:09:05;;;;;;;8.02;7.50;;;;;;;27.93;43.05;100783.59;6030199;23;20052;-70
2023/06/11 09:11:36;;;;;;;8.80;8.05;;;;;;;27.94;43.06;100760.16;6054300;23;20010;-70
2023/06/11 09:14:03;;;;;;;8.23;7.60;;;;;;;28.23;42.98;100792.41;6028338;23;20042;-71
2023/06/11 09:16:39;;;;;;;7.93;7.43;;;;;;;28.22;43.23;100806.91;6027941;23;20016;-70
2023/06/11 09:19:06;;;;;;;8.00;7.30;;;;;;;28.18;43.41;100799.41;6036698;23;20034;-70
2023/06/11 09:21:32;;;;;;;8.27;7.68;;;;;;;28.43;42.26;100775.53;6060265;23;20006;-70
2023/06/11 09:24:07;;;;;;;7.78;7.18;;;;;;;28.32;42.69;100766.09;6027728;23;20705;-70
2023/06/11 09:26:33;;;;;;;8.30;7.70;;;;;;;28.58;43.30;100849.19;6056123;23;20096;-70
2023/06/11 09:29:00;;;;;;;7.88;7.38;;;;;;;28.66;42.43;100812.28;6028317;23;20447;-70
2023/06/11 09:31:26;;;;;;;7.82;7.32;;;;;;;28.93;42.28;100851.97;6056325;23;20035;-70
2023/06/11 09:33:53;;;;;;;8.40;7.70;;;;;;;28.36;41.96;100717.97;6029555;23;20034;-70
2023/06/11 09:36:21;;;;;;;8.23;7.63;;;;;;;29.05;41.96;100811.72;6057315;23;20019;-70
2023/06/11 09:38:48;;;;;;;8.15;7.55;;;;;;;29.06;41.57;100790.94;6006053;23;20087;-70
2023/06/11 09:41:14;;;;;;;7.65;7.15;;;;;;;29.07;40.78;100768.28;6052539;23;20086;-70
2023/06/11 09:43:50;;;;;;;8.30;7.55;;;;;;;29.16;40.37;100742.78;6027254;23;20034;-68
2023/06/11 09:46:17;;;;;;;8.40;7.70;;;;;;;29.03;40.68;100736.25;6026858;23;20025;-68
2023/06/11 09:48:45;;;;;;;7.47;6.95;;;;;;;29.27;40.47;100739.53;6025963;23;20023;-68
2023/06/11 09:51:12;;;;;;;8.40;7.80;;;;;;;29.00;41.09;100754.75;6055525;23;20024;-69
2023/06/11 09:53:39;;;;;;;7.90;7.38;;;;;;;29.15;40.21;100766.28;6028371;23;20014;-68
2023/06/11 09:56:06;;;;;;;7.80;7.20;;;;;;;29.22;39.62;100723.06;6056056;23;20101;-68
2023/06/11 09:58:39;;;;;;;7.53;7.07;;;;;;;28.69;39.28;100601.28;6029847;23;20041;-68
2023/06/11 10:01:07;;;;;;;7.68;7.10;;;;;;;28.93;38.82;100641.25;6055907;23;20026;-68
2023/06/11 10:03:33;;;;;;;8.55;7.90;;;;;;;29.14;38.85;100669.19;6027130;23;20053;-68
2023/06/11 10:06:05;;;;;;;7.13;6.72;;;;;;;29.09;38.42;100655.41;6026619;23;20126;-69
2023/06/11 10:08:35;;;;;;;7.85;7.30;;;;;;;29.06;38.17;100601.78;6027302;23;20039;-69
2023/06/11 10:11:03;;;;;;;7.47;6.97;;;;;;;29.35;36.86;100612.28;6032844;23;20027;-69
2023/06/11 10:13:32;;;;;;;7.80;7.10;;;;;;;29.35;36.84;100584.41;6028037;23;20040;-68
2023/06/11 10:16:03;;;;;;;7.90;7.20;;;;;;;28.67;35.70;100420.53;6023778;23;20043;-69
2023/06/11 10:18:30;;;;;;;7.85;7.30;;;;;;;29.24;34.88;100485.84;6028619;23;20588;-69
2023/06/11 10:21:02;;;;;;;7.53;6.85;;;;;;;29.20;34.48;100484.59;6002277;23;20079;-67
2023/06/11 10:23:40;;;;;;;7.65;7.18;;;;;;;28.98;35.38;100497.44;6052683;23;20093;-67
2023/06/11 10:26:09;;;;;;;8.45;7.82;;;;;;;29.24;35.39;100532.59;6025947;23;20035;-67
2023/06/11 10:28:44;;;;;;;7.80;7.20;;;;;;;29.31;34.18;100473.16;6024074;23;21033;-67
2023/06/11 10:31:10;;;;;;;8.02;7.43;;;;;;;29.58;33.73;100525.31;6030336;23;20019;-69
2023/06/11 10:33:40;;;;;;;7.68;7.03;;;;;;;29.51;33.12;100473.13;6022395;23;20644;-67
2023/06/11 10:36:07;;;;;;;7.93;7.32;;;;;;;29.18;33.24;100427.22;6026023;23;20455;-67
2023/06/11 10:38:39;;;;;;;7.47;6.97;;;;;;;29.59;32.46;100455.88;6030020;23;20023;-67
2023/06/11 10:41:06;;;;;;;9.30;8.05;;;;;;;29.64;32.53;100473.09;6033705;23;20022;-67
2023/06/11 10:43:35;;;;;;;8.00;7.40;;;;;;;29.51;32.33;100475.00;6027193;23;20039;-67
2023/06/11 10:46:04;;;;;;;7.60;7.00;;;;;;;29.71;32.22;100512.81;6024520;23;20027;-67
2023/06/11 10:48:31;;;;;;;8.10;7.50;;;;;;;29.58;31.57;100452.31;6053221;23;20014;-67
2023/06/11 10:51:02;;;;;;;7.40;6.90;;;;;;;29.49;31.37;100440.06;6028864;23;20076;-67
2023/06/11 10:53:40;;;;;;;11.00;7.53;;;;;;;29.52;31.00;100455.88;6055506;23;20025;-67
2023/06/11 10:56:08;;;;;;;7.68;7.18;;;;;;;29.46;32.73;100532.41;6027379;23;20573;-67
2023/06/11 10:58:35;;;;;;;8.07;7.47;;;;;;;29.19;30.98;100409.97;6053063;23;20023;-67
2023/06/11 11:01:04;;;;;;;7.88;7.30;;;;;;;29.20;31.29;100395.41;6007447;23;20098;-67
2023/06/11 11:03:31;;;;;;;7.68;7.18;;;;;;;29.37;30.91;100448.00;6024864;23;20053;-67
2023/06/11 11:05:58;;;;;;;7.63;7.03;;;;;;;29.69;30.76;100501.38;6025873;23;20050;-69
2023/06/11 11:08:25;;;;;;;7.68;7.03;;;;;;;29.75;29.97;100425.69;6050783;23;20080;-68
2023/06/11 11:11:01;;;;;;;8.10;7.50;;;;;;;29.89;31.33;100513.06;6027442;23;20042;-69
2023/06/11 11:13:29;;;;;;;7.80;7.20;;;;;;;28.82;29.97;100298.78;6027871;23;20089;-67
2023/06/11 11:15:58;;;;;;;8.30;7.70;;;;;;;30.12;31.43;100557.75;6026962;23;20086;-68
2023/06/11 11:18:24;;;;;;;7.82;7.22;;;;;;;30.46;30.02;100542.25;6025250;23;20308;-68
2023/06/11 11:20:55;;;;;;;7.80;7.30;;;;;;;30.45;30.48;100560.38;6020680;23;20022;-68
2023/06/11 11:23:24;;;;;;;8.35;7.65;;;;;;;30.37;30.16;100525.38;6053122;23;20461;-68
2023/06/11 11:25:51;;;;;;;7.78;7.28;;;;;;;29.93;30.81;100464.72;6028199;23;20011;-68